Unionville, CT

7:51 AM EDT on May 22, 2015 (GMT -0400)
ARTS BACKYARD Farmington | | Change Station
CLOSE
Current Station
Personal Weather Station
Location: Unionville, CT
Elevation: 304 ft
Nearby Weather Stations

Elev 304 ft 41.75 °N, 72.88 °W | Updated 26 seconds ago

Partly Cloudy
Partly Cloudy
55.0 °F
Feels Like 55.0 °F
N
0.0
Wind Variable Wind from NE
Gusts 4.0 mph

Today
High -- | Low -- °F
--% Chance of Precip.
Yesterday
High -- | Low -- °F
Precip. -- in
5:25 AM 8:11 PM
Waxing Crescent, 20% visible
Pressure 29.86 in
Visibility 10.0 miles
Clouds Few 9000 ft
Dew Point 47 °F
Humidity 73%
Rainfall 0.00 in
Snow Depth Not available.
UV 1 out of 12
Pollen 9.30 out of 12
Air Quality Not available.
Flu Activity Widespread
METAR KHFD 221053Z 15007KT 10SM FEW090 12/08 A2985 RMK AO2 SLP109 T01220083

More Conditions Fewer Conditions

Pressure 29.86 in
Visibility 10.0 miles
Clouds Few 9000 ft
Dew Point 47 °F
Humidity 73%
Rainfall 0.00 in
Snow Depth Not available.
UV 1 out of 12
Pollen 9.30 out of 12
Air Quality Not available.
Flu Activity Widespread
METAR KHFD 221053Z 15007KT 10SM FEW090 12/08 A2985 RMK AO2 SLP109 T01220083

More Conditions Fewer Conditions

10-Day Weather Forecast

Almanac

Astronomy

May. 22, 2015 Rise Set
Actual Time
Civil Twilight
Nautical Twilight
Astronomical Twilight
Moon
Length of Visible Light
Length of Day
Tomorrow will be .
, % of the Moon is Illuminated

Today's Extremes

State Highs State Lows

Community

WunderPhotos

Upload Photos

1,823,205 photos uploaded!

WunderBlogs® & News

Nearby

Air Quality

  Air Quality AQ Index Pollutant
Not available.

Snow Depth

Station Depth Elevation

Earthquake Activity

City Distance Mag. Time & Date
Minimum magnitude displayed is 2.5.

Coastal Water Temperatures

Place Temperature

Stations

Nearby Weather Stations

Station Location Temp. Windchill Dew Point Humidity Wind Precip. Elev Updated Type